Arverne, NY

4:43 AM EDT on September 16, 2014 (GMT -0400)
Kennedy International | Change Station
CLOSE
Current Station
Airport
Location: New York JFK,
Elevation: 23 ft
Nearby Weather Stations

Elev 23 ft 40.64 °N, 73.76 °W | Updated 52 minutes ago

Overcast
Overcast
64 °F
Feels Like 64 °F
N
10
Wind Variable Wind from SW

Today
High -- | Low -- °F
--% Chance of Precip.
Yesterday
High -- | Low -- °F
Precip. -- in
6:36 AM 7:02 PM
Waning Gibbous, 47% visible
Pressure 30.06 in
Visibility 10.0 miles
Clouds Scattered Clouds 6000 ft
Overcast 20000 ft
Dew Point 55 °F
Humidity 73%
Rainfall 0.00 in
Snow Depth Not available.
UV 0 out of 12
Pollen 3.20 out of 12
Air Quality Not available.
Flu Activity Not available.
METAR KJFK 160751Z 22009KT 10SM SCT060 OVC200 18/13 A3005 RMK AO2 SLP177 T01780128

More Conditions Fewer Conditions

Pressure 30.06 in
Visibility 10.0 miles
Clouds Scattered Clouds 6000 ft
Overcast 20000 ft
Dew Point 55 °F
Humidity 73%
Rainfall 0.00 in
Snow Depth Not available.
UV 0 out of 12
Pollen 3.20 out of 12
Air Quality Not available.
Flu Activity Not available.
METAR KJFK 160751Z 22009KT 10SM SCT060 OVC200 18/13 A3005 RMK AO2 SLP177 T01780128

More Conditions Fewer Conditions

10-Day Weather Forecast

Almanac

Astronomy

Sep. 16, 2014 Rise Set
Actual Time 6:36 AM EDT 7:02 PM EDT
Civil Twilight 6:09 AM EDT 7:29 PM EDT
Nautical Twilight 5:37 AM EDT 8:02 PM EDT
Astronomical Twilight 5:04 AM EDT 8:34 PM EDT
Moon No Moon Rise 2:25 PM EDT
Length of Visible Light 13h 20m
Length of Day
12h 25m
Tomorrow will be 2m 39s shorter.
Waning Gibbous, 47% of the Moon is Illuminated
Today
Waning Gibbous
Sep 24
New
Oct 1
First Quarter
Oct 8
Full
Oct 15
Last Quarter

Today's Extremes

State Highs State Lows

Community

WunderPhotos

Upload Photos

1,753,712 photos uploaded!

WunderBlogs® & News

Nearby

Snow Depth

Station Depth Elevation
No new snow has been reported.

Earthquake Activity

City Distance Mag. Time & Date
No recent earthquake activity has been reported nearby.
Minimum magnitude displayed is 2.5.

Coastal Water Temperatures

Place Temperature
Sandy Hook, NJ 70.0 °F
The Battery, NY 71.1 °F
Bergen Point West Reach, NJ 71.1 °F
Kings Point, NY 70.0 °F

Nearby Weather Stations